Terminal Aerodrome Forecast
Issued by NWS Cleveland, OH

Home | Current Version | Previous Version | Graphics & Text | Print | Product List | Glossary Off
Versions: 1 2 3 4 5 6 7 8 9 10 11 12 13 14 15 16 17 18 19

939
FTUS41 KCLE 142328
TAFYNG
TAF
KYNG 142328Z 1500/1524 27006KT P6SM BKN035
      TEMPO 1500/1503 6SM -SHSN BKN025
     FM150700 24004KT P6SM BKN120
     FM151400 21008KT P6SM BKN070
     FM151800 25012G22KT P6SM VCSH OVC025
     FM152300 26012KT P6SM BKN035=

USA.gov is the U.S. government's official web portal to all federal, state and local government web resources and services.